Time;durP1;ratioP1;P1;durP2;ratioP2;P2;SDS_P1;SDS_P2;PMS_P1;PMS_P2;Temp;Humidity;BMP_temperature;BMP_pressure;BME280_temperature;BME280_humidity;BME280_pressure;Samples;Min_cycle;Max_cycle;Signal;HPM_P1;HPM_P2
2023/02/11 14:48:21;;;;;;;2.83;2.28;;;;;;;;;;7394606;19;21016;-90
2023/02/11 14:50:57;;;;;;;1.10;1.02;;;;;;;;;;7398812;19;20141;-90
2023/02/11 14:53:25;;;;;;;2.20;2.10;;;;;;;;;;7392136;19;20195;-84
2023/02/11 14:55:54;;;;;;;2.10;2.00;;;;;;;;;;7387388;19;20152;-86
2023/02/11 14:58:23;;;;;;;2.03;1.93;;;;;;;;;;7389551;19;20149;-86
2023/02/11 15:01:01;;;;;;;1.40;1.17;;;;;;;;;;7388140;19;20153;-86
2023/02/11 15:03:42;;;;;;;1.20;1.10;;;;;;;;;;7392519;19;20180;-86
2023/02/11 15:06:27;;;;;;;1.50;1.40;;;;;;;;;;7392347;19;20462;-85
2023/02/11 15:09:06;;;;;;;0.53;0.53;;;;;;;;;;7395809;19;20141;-86
2023/02/11 15:11:40;;;;;;;1.20;1.20;;;;;;;;;;7399798;19;20601;-87
2023/02/11 15:14:10;;;;;;;1.63;1.53;;;;;;;;;;7399173;19;20171;-87
2023/02/11 15:16:42;;;;;;;1.20;1.20;;;;;;;;;;7401921;19;20494;-86
2023/02/11 15:19:18;;;;;;;2.93;2.10;;;;;;;;;;7398993;19;20544;-87
2023/02/11 15:21:46;;;;;;;0.90;0.90;;;;;;;;;;7395145;19;20155;-88
2023/02/11 15:24:27;;;;;;;1.77;1.40;;;;;;;;;;7400617;19;20204;-87
2023/02/11 15:27:14;;;;;;;0.80;0.80;;;;;;;;;;7406137;19;20145;-87
2023/02/11 15:29:48;;;;;;;1.83;1.73;;;;;;;;;;7404065;19;20179;-87
2023/02/11 15:32:17;;;;;;;0.80;0.80;;;;;;;;;;7402325;19;20524;-86
2023/02/11 15:34:45;;;;;;;2.67;1.83;;;;;;;;;;7404164;19;20180;-85
2023/02/11 15:37:26;;;;;;;0.97;0.97;;;;;;;;;;7398521;19;20149;-90
2023/02/11 15:39:53;;;;;;;1.17;1.13;;;;;;;;;;7392336;19;20145;-89
2023/02/11 15:42:25;;;;;;;4.80;0.97;;;;;;;;;;7390860;19;20147;-92
2023/02/11 15:45:15;;;;;;;1.07;1.07;;;;;;;;;;7398612;19;20648;-89
2023/02/11 15:47:48;;;;;;;0.83;0.83;;;;;;;;;;7393417;19;20449;-88
2023/02/11 15:50:21;;;;;;;1.80;1.37;;;;;;;;;;7392026;19;20167;-90
2023/02/11 15:52:48;;;;;;;1.30;1.20;;;;;;;;;;7386929;19;20148;-89
2023/02/11 15:55:16;;;;;;;1.23;1.20;;;;;;;;;;7392248;19;20153;-88
2023/02/11 15:57:45;;;;;;;1.77;1.13;;;;;;;;;;7397207;19;20140;-88
2023/02/11 16:00:17;;;;;;;0.57;0.57;;;;;;;;;;7396478;19;20170;-87
2023/02/11 16:02:45;;;;;;;1.40;1.30;;;;;;;;;;7393152;19;20140;-88
2023/02/11 16:05:29;;;;;;;1.57;1.47;;;;;;;;;;7392874;19;20177;-87
2023/02/11 16:07:55;;;;;;;1.33;1.27;;;;;;;;;;7392827;19;20152;-88
2023/02/11 16:10:26;;;;;;;2.40;1.13;;;;;;;;;;7392645;19;20172;-88
2023/02/11 16:13:06;;;;;;;1.33;1.20;;;;;;;;;;7394987;19;20140;-90
2023/02/11 16:15:32;;;;;;;0.30;0.30;;;;;;;;;;7399035;19;20612;-89
2023/02/11 16:18:01;;;;;;;1.00;0.77;;;;;;;;;;7391806;19;20141;-89
2023/02/11 16:20:27;;;;;;;0.50;0.50;;;;;;;;;;7388154;19;20133;-91
2023/02/11 16:22:54;;;;;;;2.13;0.70;;;;;;;;;;7389892;19;20141;-89
2023/02/11 16:25:21;;;;;;;0.37;0.37;;;;;;;;;;7395450;19;20164;-89
2023/02/11 16:27:51;;;;;;;3.30;2.40;;;;;;;;;;7397870;19;20537;-88
2023/02/11 16:30:38;;;;;;;0.30;0.30;;;;;;;;;;7394960;19;20850;-89
2023/02/11 16:33:05;;;;;;;2.40;0.70;;;;;;;;;;7391656;19;20184;-89
2023/02/11 16:35:32;;;;;;;3.73;0.97;;;;;;;;;;7397009;19;20145;-88
2023/02/11 16:37:58;;;;;;;2.03;1.60;;;;;;;;;;7394776;19;20602;-91
2023/02/11 16:40:25;;;;;;;0.30;0.30;;;;;;;;;;7395369;19;20136;-91
2023/02/11 16:42:52;;;;;;;1.80;1.70;;;;;;;;;;7393311;19;20137;-90
2023/02/11 16:45:18;;;;;;;0.70;0.70;;;;;;;;;;7392915;19;20137;-89
2023/02/11 16:47:45;;;;;;;0.40;0.40;;;;;;;;;;7396541;19;20137;-90
2023/02/11 16:50:21;;;;;;;0.90;0.90;;;;;;;;;;7393125;19;20160;-90
2023/02/11 16:52:47;;;;;;;0.30;0.30;;;;;;;;;;7396859;19;20469;-90
2023/02/11 16:55:14;;;;;;;0.33;0.33;;;;;;;;;;7392633;19;20183;-94
2023/02/11 16:57:40;;;;;;;0.30;0.30;;;;;;;;;;7396255;19;20129;-91
2023/02/11 17:00:08;;;;;;;0.30;0.30;;;;;;;;;;7405517;19;20140;-92
2023/02/11 17:02:36;;;;;;;0.30;0.30;;;;;;;;;;7401748;19;20172;-92
2023/02/11 17:05:05;;;;;;;1.43;1.33;;;;;;;;;;7401446;19;20168;-91
2023/02/11 17:07:32;;;;;;;0.30;0.30;;;;;;;;;;7404168;19;20172;-93
2023/02/11 17:09:59;;;;;;;0.63;0.63;;;;;;;;;;7398300;19;20152;-91
2023/02/11 17:12:45;;;;;;;0.30;0.30;;;;;;;;;;7393101;19;20601;-90
2023/02/11 17:16:00;;;;;;;1.07;1.07;;;;;;;;;;7394348;19;20153;-90
2023/02/11 17:18:48;;;;;;;1.20;1.10;;;;;;;;;;7390522;19;20149;-88
2023/02/11 17:21:14;;;;;;;2.87;1.47;;;;;;;;;;7395627;19;20128;-91
2023/02/11 17:24:07;;;;;;;1.50;1.40;;;;;;;;;;7391180;19;20179;-91
2023/02/11 17:27:04;;;;;;;1.77;1.67;;;;;;;;;;7391954;19;20144;-90
2023/02/11 17:33:32;;;;;;;1.27;1.17;;;;;;;;;;7391683;19;20168;-91
2023/02/11 17:36:06;;;;;;;1.73;1.20;;;;;;;;;;7393538;19;20133;-91
2023/02/11 17:38:33;;;;;;;4.43;1.73;;;;;;;;;;7382350;19;20175;-91
2023/02/11 17:41:01;;;;;;;0.90;0.90;;;;;;;;;;7386183;19;20152;-90
2023/02/11 17:43:27;;;;;;;1.77;1.60;;;;;;;;;;7385045;19;20160;-89
2023/02/11 17:45:54;;;;;;;1.63;1.53;;;;;;;;;;7386462;19;20152;-91
2023/02/11 17:48:21;;;;;;;1.23;1.13;;;;;;;;;;7386685;19;20137;-91
2023/02/11 17:50:48;;;;;;;1.00;1.00;;;;;;;;;;7387293;19;20129;-89
2023/02/11 17:53:15;;;;;;;1.87;1.50;;;;;;;;;;7390050;19;20160;-91
2023/02/11 17:55:41;;;;;;;1.50;1.40;;;;;;;;;;7390433;19;20137;-91
2023/02/11 17:58:08;;;;;;;1.20;1.13;;;;;;;;;;7390507;19;20144;-92
2023/02/11 18:00:35;;;;;;;1.00;0.97;;;;;;;;;;7390373;19;20616;-90
2023/02/11 18:03:02;;;;;;;1.17;1.13;;;;;;;;;;7391886;19;20156;-88
2023/02/11 18:05:35;;;;;;;1.27;1.17;;;;;;;;;;7390658;19;20515;-89
2023/02/11 18:08:06;;;;;;;1.97;1.40;;;;;;;;;;7395318;19;20141;-91
2023/02/11 18:10:33;;;;;;;0.80;0.80;;;;;;;;;;7391944;19;20156;-93
2023/02/11 18:13:00;;;;;;;1.57;1.47;;;;;;;;;;7394716;19;20141;-94
2023/02/11 18:15:26;;;;;;;1.57;1.47;;;;;;;;;;7397459;19;20206;-93
2023/02/11 18:17:54;;;;;;;1.20;1.20;;;;;;;;;;7391603;19;20137;-94
2023/02/11 18:21:01;;;;;;;2.23;1.70;;;;;;;;;;7398695;19;20548;-95
2023/02/11 18:23:35;;;;;;;0.63;0.63;;;;;;;;;;7395059;19;20232;-94
2023/02/11 18:26:03;;;;;;;1.90;1.37;;;;;;;;;;7405407;19;20133;-91
2023/02/11 18:28:30;;;;;;;0.87;0.80;;;;;;;;;;7397461;19;20139;-91
2023/02/11 18:30:58;;;;;;;0.90;0.90;;;;;;;;;;7395791;19;20137;-92
2023/02/11 18:33:25;;;;;;;0.90;0.90;;;;;;;;;;7394553;19;20176;-89
2023/02/11 18:35:52;;;;;;;2.20;1.83;;;;;;;;;;7391854;19;20149;-92
2023/02/11 18:38:19;;;;;;;1.10;1.10;;;;;;;;;;7395012;19;20172;-90
2023/02/11 18:40:48;;;;;;;0.83;0.83;;;;;;;;;;7394391;19;20141;-93
2023/02/11 18:43:16;;;;;;;1.40;1.30;;;;;;;;;;7394516;19;20180;-92
2023/02/11 18:45:43;;;;;;;1.70;1.60;;;;;;;;;;7399610;19;20140;-93
2023/02/11 18:48:10;;;;;;;2.93;1.57;;;;;;;;;;7400210;19;20597;-92
2023/02/11 18:50:39;;;;;;;1.17;1.13;;;;;;;;;;7401104;19;20493;-92
2023/02/11 18:53:10;;;;;;;1.33;1.13;;;;;;;;;;7399774;19;20129;-90
2023/02/11 18:55:38;;;;;;;2.10;1.37;;;;;;;;;;7401908;19;20242;-89
2023/02/11 18:58:05;;;;;;;1.20;1.10;;;;;;;;;;7401525;19;20133;-87
2023/02/11 19:00:33;;;;;;;1.53;1.50;;;;;;;;;;7403183;19;20137;-90
2023/02/11 19:03:00;;;;;;;1.03;1.03;;;;;;;;;;7399814;19;20147;-91
2023/02/11 19:05:31;;;;;;;1.73;1.63;;;;;;;;;;7402280;19;20169;-92
2023/02/11 19:07:59;;;;;;;1.70;1.60;;;;;;;;;;7401814;19;20132;-90
2023/02/11 19:10:38;;;;;;;1.90;1.80;;;;;;;;;;7401759;19;20125;-89
2023/02/11 19:13:05;;;;;;;1.73;1.63;;;;;;;;;;7401321;19;20140;-91
2023/02/11 19:15:32;;;;;;;1.20;1.10;;;;;;;;;;7397896;19;20156;-92
2023/02/11 19:17:58;;;;;;;1.20;1.20;;;;;;;;;;7400610;19;20168;-92
2023/02/11 19:20:25;;;;;;;1.80;1.70;;;;;;;;;;7401345;19;20141;-90
2023/02/11 19:22:51;;;;;;;1.97;1.87;;;;;;;;;;7398496;19;20129;-90
2023/02/11 19:25:18;;;;;;;9.47;2.17;;;;;;;;;;7399942;19;20141;-92
2023/02/11 19:27:44;;;;;;;1.57;1.47;;;;;;;;;;7400234;19;20163;-93
2023/02/11 19:30:11;;;;;;;5.27;1.13;;;;;;;;;;7403943;19;20188;-93
2023/02/11 19:32:38;;;;;;;1.80;1.70;;;;;;;;;;7410385;19;20129;-92
2023/02/11 19:35:05;;;;;;;2.57;1.80;;;;;;;;;;7406276;19;20176;-92
2023/02/11 19:37:31;;;;;;;1.53;1.43;;;;;;;;;;7407609;19;20161;-92
2023/02/11 19:39:58;;;;;;;1.47;1.37;;;;;;;;;;7406433;19;20141;-92
2023/02/11 19:42:26;;;;;;;2.23;1.73;;;;;;;;;;7412265;19;20133;-93
2023/02/11 19:44:53;;;;;;;1.53;1.43;;;;;;;;;;7408174;19;20766;-92
2023/02/11 19:47:26;;;;;;;2.23;2.13;;;;;;;;;;7413117;19;20141;-90
2023/02/11 19:49:53;;;;;;;2.47;1.90;;;;;;;;;;7404161;19;20141;-92
2023/02/11 19:52:19;;;;;;;1.97;1.87;;;;;;;;;;7405800;19;20141;-87
2023/02/11 19:54:46;;;;;;;1.87;1.67;;;;;;;;;;7394079;19;20481;-85
2023/02/11 19:57:12;;;;;;;1.50;1.37;;;;;;;;;;7398278;19;20125;-85
2023/02/11 19:59:39;;;;;;;4.67;2.83;;;;;;;;;;7400475;19;20129;-85
2023/02/11 20:02:05;;;;;;;1.57;1.37;;;;;;;;;;7396515;19;20648;-85
2023/02/11 20:04:32;;;;;;;2.10;1.53;;;;;;;;;;7397693;19;20616;-87
2023/02/11 20:06:58;;;;;;;2.17;2.07;;;;;;;;;;7396313;19;20125;-85
2023/02/11 20:09:27;;;;;;;1.77;1.67;;;;;;;;;;7396023;19;20152;-85
2023/02/11 20:11:53;;;;;;;1.90;1.80;;;;;;;;;;7396694;19;20129;-87
2023/02/11 20:14:20;;;;;;;2.43;2.10;;;;;;;;;;7395568;19;20514;-87
2023/02/11 20:16:47;;;;;;;3.33;2.40;;;;;;;;;;7397184;19;20158;-86
2023/02/11 20:19:17;;;;;;;1.67;1.57;;;;;;;;;;7397049;19;20141;-89
2023/02/11 20:21:45;;;;;;;3.80;2.17;;;;;;;;;;7397240;19;20165;-88
2023/02/11 20:24:13;;;;;;;2.57;2.03;;;;;;;;;;7420739;19;20165;-88
2023/02/11 20:26:41;;;;;;;6.57;1.70;;;;;;;;;;7425300;19;20141;-89
2023/02/11 20:29:07;;;;;;;1.83;1.73;;;;;;;;;;7397844;19;20602;-86
2023/02/11 20:31:35;;;;;;;2.30;1.70;;;;;;;;;;7396039;19;20512;-88
2023/02/11 20:34:02;;;;;;;1.97;1.47;;;;;;;;;;7394017;19;20149;-86
2023/02/11 20:36:31;;;;;;;1.90;1.67;;;;;;;;;;7395547;19;20129;-86
2023/02/11 20:38:58;;;;;;;1.77;1.67;;;;;;;;;;7395313;19;20609;-89
2023/02/11 20:41:29;;;;;;;1.73;1.57;;;;;;;;;;7398134;19;20132;-90
2023/02/11 20:43:57;;;;;;;1.00;1.00;;;;;;;;;;7396243;19;20176;-85
2023/02/11 20:46:27;;;;;;;2.13;1.93;;;;;;;;;;7398690;19;20144;-88
2023/02/11 20:48:55;;;;;;;2.97;2.57;;;;;;;;;;7399208;19;20637;-88
2023/02/11 20:51:24;;;;;;;2.30;1.87;;;;;;;;;;7395352;19;20133;-88
2023/02/11 20:53:51;;;;;;;3.40;2.90;;;;;;;;;;7394117;19;20153;-85
2023/02/11 20:56:30;;;;;;;4.17;1.90;;;;;;;;;;7396246;19;20158;-90
2023/02/11 20:58:58;;;;;;;3.40;1.83;;;;;;;;;;7395410;19;20132;-91
2023/02/11 21:01:27;;;;;;;2.17;2.00;;;;;;;;;;7392986;19;20164;-90
2023/02/11 21:03:59;;;;;;;5.23;1.77;;;;;;;;;;7391582;19;20171;-89
2023/02/11 21:06:29;;;;;;;1.83;1.73;;;;;;;;;;7396582;19;20164;-90
2023/02/11 21:08:56;;;;;;;3.53;1.90;;;;;;;;;;7396317;19;20600;-89
2023/02/11 21:11:22;;;;;;;1.70;1.57;;;;;;;;;;7399612;19;20141;-86
2023/02/11 21:13:49;;;;;;;2.17;1.70;;;;;;;;;;7395504;19;20164;-86
2023/02/11 21:16:19;;;;;;;2.20;1.77;;;;;;;;;;7394562;19;20117;-87
2023/02/11 21:18:46;;;;;;;2.63;2.43;;;;;;;;;;7394815;19;20133;-85
2023/02/11 21:21:13;;;;;;;1.67;1.57;;;;;;;;;;7396218;19;20133;-90
2023/02/11 21:23:40;;;;;;;2.17;2.07;;;;;;;;;;7397146;19;20175;-86
2023/02/11 21:26:07;;;;;;;2.97;1.83;;;;;;;;;;7396935;19;20635;-90
2023/02/11 21:28:34;;;;;;;2.43;1.83;;;;;;;;;;7397823;19;20136;-91
2023/02/11 21:31:01;;;;;;;2.10;1.90;;;;;;;;;;7396596;19;20133;-88
2023/02/11 21:33:29;;;;;;;0.80;0.80;;;;;;;;;;7410567;19;20164;-90
2023/02/11 21:35:56;;;;;;;1.30;1.20;;;;;;;;;;7426454;19;20637;-87
2023/02/11 21:38:24;;;;;;;6.70;1.40;;;;;;;;;;7394620;19;20156;-87
2023/02/11 21:40:51;;;;;;;0.67;0.67;;;;;;;;;;7393787;19;20125;-87
2023/02/11 21:43:18;;;;;;;2.67;1.13;;;;;;;;;;7393368;19;20156;-87
2023/02/11 21:45:45;;;;;;;0.83;0.83;;;;;;;;;;7394433;19;20133;-85
2023/02/11 21:48:13;;;;;;;2.43;1.80;;;;;;;;;;7393687;19;20160;-87
2023/02/11 21:50:41;;;;;;;0.83;0.83;;;;;;;;;;7394219;19;20168;-90
2023/02/11 21:53:08;;;;;;;1.27;1.13;;;;;;;;;;7396119;19;20137;-89
2023/02/11 21:55:35;;;;;;;1.90;1.77;;;;;;;;;;7397292;19;20148;-90
2023/02/11 21:58:02;;;;;;;2.43;1.37;;;;;;;;;;7395561;19;20156;-91
2023/02/11 22:00:29;;;;;;;3.53;1.80;;;;;;;;;;7409223;19;20149;-90
2023/02/11 22:02:55;;;;;;;0.77;0.77;;;;;;;;;;7425790;19;20162;-89
2023/02/11 22:05:22;;;;;;;1.33;1.30;;;;;;;;;;7424982;19;20145;-91
2023/02/11 22:07:49;;;;;;;0.73;0.73;;;;;;;;;;7393463;19;20133;-91
2023/02/11 22:10:16;;;;;;;3.47;2.37;;;;;;;;;;7392440;19;20166;-91
2023/02/11 22:12:43;;;;;;;1.30;1.20;;;;;;;;;;7393500;19;20171;-91
2023/02/11 22:15:10;;;;;;;0.90;0.90;;;;;;;;;;7391536;19;20488;-92
2023/02/11 22:17:36;;;;;;;0.90;0.87;;;;;;;;;;7393304;19;20160;-91
2023/02/11 22:20:04;;;;;;;1.57;1.53;;;;;;;;;;7392837;19;20193;-91
2023/02/11 22:22:30;;;;;;;2.47;1.63;;;;;;;;;;7392647;19;20174;-92
2023/02/11 22:24:58;;;;;;;1.50;1.40;;;;;;;;;;7391346;19;20624;-91
2023/02/11 22:27:25;;;;;;;1.10;1.10;;;;;;;;;;7393279;19;20137;-91
2023/02/11 22:29:51;;;;;;;2.00;1.33;;;;;;;;;;7391156;19;20159;-92
2023/02/11 22:32:18;;;;;;;0.80;0.80;;;;;;;;;;7393678;19;20167;-91
2023/02/11 22:34:44;;;;;;;2.63;2.33;;;;;;;;;;7391858;19;20164;-91
2023/02/11 22:37:11;;;;;;;1.50;1.40;;;;;;;;;;7392942;19;20168;-91
2023/02/11 22:39:38;;;;;;;0.90;0.90;;;;;;;;;;7392596;19;20136;-89
2023/02/11 22:42:04;;;;;;;0.97;0.97;;;;;;;;;;7393422;19;20187;-90
2023/02/11 22:44:31;;;;;;;2.07;1.80;;;;;;;;;;7390733;19;20172;-93
2023/02/11 22:46:57;;;;;;;1.73;1.10;;;;;;;;;;7392667;19;20145;-91
2023/02/11 22:49:24;;;;;;;0.83;0.83;;;;;;;;;;7391675;19;20523;-92
2023/02/11 22:51:50;;;;;;;0.93;0.90;;;;;;;;;;7392709;19;20149;-90
2023/02/11 22:54:17;;;;;;;1.03;0.80;;;;;;;;;;7390580;19;20519;-91
2023/02/11 22:56:44;;;;;;;1.17;1.17;;;;;;;;;;7393113;19;20477;-92
2023/02/11 22:59:13;;;;;;;0.93;0.93;;;;;;;;;;7390840;19;20136;-92
2023/02/11 23:01:40;;;;;;;1.20;1.10;;;;;;;;;;7393390;19;20121;-92
2023/02/11 23:04:10;;;;;;;1.77;1.63;;;;;;;;;;7390733;19;20168;-91
2023/02/11 23:06:37;;;;;;;1.73;1.63;;;;;;;;;;7391872;19;20480;-92
2023/02/11 23:09:04;;;;;;;1.83;1.23;;;;;;;;;;7392385;19;20145;-91
2023/02/11 23:11:31;;;;;;;1.43;1.37;;;;;;;;;;7391877;19;20149;-91
2023/02/11 23:14:00;;;;;;;3.60;1.13;;;;;;;;;;7391518;19;20161;-89
2023/02/11 23:16:32;;;;;;;2.40;1.73;;;;;;;;;;7390602;19;20644;-91
2023/02/11 23:19:00;;;;;;;1.47;1.37;;;;;;;;;;7391392;19;20665;-92
2023/02/11 23:21:29;;;;;;;1.50;1.40;;;;;;;;;;7391251;19;20157;-90
2023/02/11 23:23:58;;;;;;;1.83;1.73;;;;;;;;;;7390579;19;20180;-93
2023/02/11 23:26:25;;;;;;;2.63;2.43;;;;;;;;;;7390297;19;20536;-89
2023/02/11 23:28:51;;;;;;;1.50;1.30;;;;;;;;;;7390659;19;20168;-90
2023/02/11 23:31:24;;;;;;;1.60;1.50;;;;;;;;;;7396702;19;20163;-91
2023/02/11 23:33:51;;;;;;;1.43;1.20;;;;;;;;;;7396913;19;20164;-90
2023/02/11 23:36:20;;;;;;;4.40;1.37;;;;;;;;;;7398369;19;20153;-90
2023/02/11 23:38:47;;;;;;;3.13;1.53;;;;;;;;;;7398634;19;20133;-91
2023/02/11 23:41:14;;;;;;;1.97;1.77;;;;;;;;;;7397446;19;20137;-90
2023/02/11 23:43:41;;;;;;;2.60;1.57;;;;;;;;;;7397911;19;20171;-91
2023/02/11 23:46:08;;;;;;;0.93;0.93;;;;;;;;;;7396912;19;20620;-91
2023/02/11 23:48:36;;;;;;;1.00;1.00;;;;;;;;;;7397817;19;20145;-92
2023/02/11 23:51:03;;;;;;;2.10;1.77;;;;;;;;;;7397669;19;20132;-91
2023/02/11 23:53:29;;;;;;;1.40;1.30;;;;;;;;;;7397502;19;20671;-92
2023/02/11 23:55:56;;;;;;;1.87;1.57;;;;;;;;;;7395870;19;20136;-91
2023/02/11 23:58:23;;;;;;;2.30;1.57;;;;;;;;;;7397745;19;20618;-90
